AAR893 RKPC-RKSI
Flight info
| Callsign | AAR893 |
|---|---|
| Flight time | 0h 49m |
| Altitude | 21000 |
| Route | KAMIT1W KAMIT Y722 OLMEN OLMEN1Y |
| Aircraft | A320/M-SDE3FGHIRWY/LB1 |
Departure
| Time | 2026-05-01 08:58 |
|---|---|
| Airport | Jeju International Airport (RKPC) |
Arrival
| Time | 2026-05-01 09:47 |
|---|---|
| Airport | Incheon International Airport (RKSI) |
| Time | Latitude | Longitude | Altitude | Speed | Heading |
|---|---|---|---|---|---|
| 2026-05-01 08:33 | 33.50703 | 126.49185 | 88 ft | 0 kts | 149° |
| 2026-05-01 08:47 | 33.50710 | 126.49180 | 89 ft | 2 kts | 147° |
| 2026-05-01 08:47 | 33.50724 | 126.49169 | 90 ft | 2 kts | 148° |
| 2026-05-01 08:47 | 33.50738 | 126.49159 | 88 ft | 2 kts | 148° |
| 2026-05-01 08:47 | 33.50752 | 126.49149 | 89 ft | 2 kts | 148° |
| 2026-05-01 08:48 | 33.50758 | 126.49144 | 91 ft | 0 kts | 149° |
| 2026-05-01 08:48 | 33.50758 | 126.49145 | 91 ft | 0 kts | 149° |
| 2026-05-01 08:48 | 33.50765 | 126.49140 | 91 ft | 3 kts | 147° |
| 2026-05-01 08:49 | 33.50781 | 126.49128 | 92 ft | 3 kts | 122° |
| 2026-05-01 08:49 | 33.50783 | 126.49107 | 91 ft | 0 kts | 59° |
| 2026-05-01 08:51 | 33.50783 | 126.49109 | 92 ft | 1 kts | 59° |
| 2026-05-01 08:51 | 33.50800 | 126.49141 | 88 ft | 7 kts | 58° |
| 2026-05-01 08:52 | 33.50831 | 126.49203 | 89 ft | 10 kts | 61° |
| 2026-05-01 08:52 | 33.50870 | 126.49282 | 87 ft | 12 kts | 59° |
| 2026-05-01 08:52 | 33.50916 | 126.49376 | 88 ft | 14 kts | 62° |
| 2026-05-01 08:52 | 33.50969 | 126.49478 | 88 ft | 14 kts | 59° |
| 2026-05-01 08:53 | 33.51028 | 126.49585 | 85 ft | 17 kts | 45° |
| 2026-05-01 08:53 | 33.51133 | 126.49643 | 89 ft | 17 kts | 19° |
| 2026-05-01 08:53 | 33.51249 | 126.49694 | 91 ft | 17 kts | 28° |
| 2026-05-01 08:53 | 33.51314 | 126.49795 | 92 ft | 13 kts | 57° |
| 2026-05-01 08:54 | 33.51383 | 126.49820 | 91 ft | 7 kts | 327° |
| 2026-05-01 08:54 | 33.51387 | 126.49818 | 90 ft | 0 kts | 330° |
| 2026-05-01 08:56 | 33.51411 | 126.49801 | 91 ft | 9 kts | 330° |
| 2026-05-01 08:56 | 33.51459 | 126.49744 | 93 ft | 10 kts | 301° |
| 2026-05-01 08:57 | 33.51452 | 126.49676 | 94 ft | 0 kts | 239° |
| 2026-05-01 08:57 | 33.51444 | 126.49661 | 93 ft | 7 kts | 239° |
| 2026-05-01 08:57 | 33.51322 | 126.49422 | 91 ft | 67 kts | 238° |
| 2026-05-01 08:57 | 33.50969 | 126.48743 | 93 ft | 122 kts | 238° |
| 2026-05-01 08:58 | 33.50460 | 126.47725 | 165 ft | 155 kts | 242° |
| 2026-05-01 08:58 | 33.49909 | 126.46628 | 752 ft | 154 kts | 240° |
| 2026-05-01 08:58 | 33.49341 | 126.45539 | 1346 ft | 155 kts | 241° |
| 2026-05-01 08:58 | 33.48767 | 126.44445 | 1919 ft | 156 kts | 246° |
| 2026-05-01 08:59 | 33.48167 | 126.43276 | 2228 ft | 176 kts | 245° |
| 2026-05-01 08:59 | 33.47490 | 126.41949 | 2467 ft | 198 kts | 245° |
| 2026-05-01 08:59 | 33.46725 | 126.40447 | 2730 ft | 224 kts | 243° |
| 2026-05-01 08:59 | 33.45866 | 126.38771 | 3150 ft | 248 kts | 243° |
| 2026-05-01 09:00 | 33.45263 | 126.36844 | 3840 ft | 250 kts | 271° |
| 2026-05-01 09:00 | 33.45704 | 126.34881 | 4614 ft | 248 kts | 307° |
| 2026-05-01 09:00 | 33.47034 | 126.33589 | 5435 ft | 251 kts | 333° |
| 2026-05-01 09:00 | 33.48643 | 126.32746 | 6305 ft | 254 kts | 340° |
| 2026-05-01 09:01 | 33.50311 | 126.32010 | 7128 ft | 257 kts | 341° |
| 2026-05-01 09:01 | 33.51994 | 126.31272 | 7980 ft | 258 kts | 340° |
| 2026-05-01 09:01 | 33.53678 | 126.30498 | 8829 ft | 260 kts | 340° |
| 2026-05-01 09:01 | 33.55364 | 126.29683 | 9636 ft | 263 kts | 339° |
| 2026-05-01 09:02 | 33.57039 | 126.28845 | 9922 ft | 265 kts | 338° |
| 2026-05-01 09:02 | 33.58729 | 126.27976 | 9988 ft | 264 kts | 338° |
| 2026-05-01 09:02 | 33.60414 | 126.27096 | 9996 ft | 264 kts | 338° |
| 2026-05-01 09:02 | 33.62106 | 126.26206 | 9996 ft | 266 kts | 338° |
| 2026-05-01 09:03 | 33.63833 | 126.25365 | 9993 ft | 275 kts | 345° |
| 2026-05-01 09:03 | 33.65828 | 126.25055 | 9995 ft | 305 kts | 1° |
| 2026-05-01 09:03 | 33.67953 | 126.25576 | 10004 ft | 320 kts | 20° |
| 2026-05-01 09:03 | 33.69867 | 126.27037 | 10528 ft | 334 kts | 38° |
| 2026-05-01 09:04 | 33.71358 | 126.29226 | 11157 ft | 344 kts | 50° |
| 2026-05-01 09:04 | 33.72716 | 126.31619 | 11767 ft | 350 kts | 51° |
| 2026-05-01 09:04 | 33.74081 | 126.34065 | 12364 ft | 355 kts | 51° |
| 2026-05-01 09:04 | 33.75010 | 126.35742 | 12770 ft | 359 kts | 51° |
| 2026-05-01 09:05 | 33.76858 | 126.39079 | 13581 ft | 365 kts | 50° |
| 2026-05-01 09:05 | 33.78274 | 126.41640 | 14118 ft | 371 kts | 50° |
| 2026-05-01 09:05 | 33.79222 | 126.43358 | 14472 ft | 374 kts | 50° |
| 2026-05-01 09:05 | 33.81163 | 126.46870 | 15176 ft | 380 kts | 50° |
| 2026-05-01 09:06 | 33.82135 | 126.48626 | 15526 ft | 382 kts | 50° |
| 2026-05-01 09:06 | 33.83615 | 126.51302 | 16040 ft | 387 kts | 50° |
| 2026-05-01 09:06 | 33.85117 | 126.54014 | 16563 ft | 391 kts | 50° |
| 2026-05-01 09:06 | 33.86634 | 126.56751 | 17093 ft | 395 kts | 50° |
| 2026-05-01 09:07 | 33.88170 | 126.59520 | 17641 ft | 400 kts | 50° |
| 2026-05-01 09:07 | 33.89720 | 126.62320 | 18180 ft | 405 kts | 50° |
| 2026-05-01 09:07 | 33.91285 | 126.65160 | 18664 ft | 409 kts | 50° |
| 2026-05-01 09:07 | 33.92878 | 126.68018 | 19155 ft | 411 kts | 47° |
| 2026-05-01 09:08 | 33.94777 | 126.70561 | 19632 ft | 406 kts | 34° |
| 2026-05-01 09:08 | 33.97037 | 126.72548 | 20136 ft | 400 kts | 22° |
| 2026-05-01 09:08 | 33.99541 | 126.73929 | 20650 ft | 393 kts | 11° |
| 2026-05-01 09:08 | 34.02173 | 126.74700 | 20918 ft | 386 kts | 1° |
| 2026-05-01 09:09 | 34.04852 | 126.75004 | 20985 ft | 393 kts | 358° |
| 2026-05-01 09:09 | 34.07626 | 126.75278 | 20986 ft | 405 kts | 358° |
| 2026-05-01 09:09 | 34.11375 | 126.75656 | 20982 ft | 410 kts | 359° |
| 2026-05-01 09:09 | 34.13295 | 126.75857 | 20983 ft | 410 kts | 359° |
| 2026-05-01 09:10 | 34.16143 | 126.76160 | 20979 ft | 411 kts | 359° |
| 2026-05-01 09:10 | 34.18991 | 126.76465 | 20975 ft | 411 kts | 359° |
| 2026-05-01 09:10 | 34.21839 | 126.76772 | 20975 ft | 411 kts | 359° |
| 2026-05-01 09:10 | 34.24683 | 126.77078 | 20970 ft | 410 kts | 359° |
| 2026-05-01 09:11 | 34.27487 | 126.77381 | 20972 ft | 410 kts | 359° |
| 2026-05-01 09:11 | 34.30327 | 126.77686 | 20970 ft | 410 kts | 359° |
| 2026-05-01 09:11 | 34.33165 | 126.77989 | 20969 ft | 410 kts | 359° |
| 2026-05-01 09:11 | 34.36005 | 126.78289 | 20973 ft | 410 kts | 359° |
| 2026-05-01 09:12 | 34.38845 | 126.78587 | 20965 ft | 409 kts | 359° |
| 2026-05-01 09:12 | 34.41685 | 126.78888 | 20970 ft | 409 kts | 359° |
| 2026-05-01 09:12 | 34.44525 | 126.79191 | 20969 ft | 409 kts | 359° |
| 2026-05-01 09:12 | 34.47362 | 126.79493 | 20965 ft | 409 kts | 359° |
| 2026-05-01 09:13 | 34.50202 | 126.79794 | 20967 ft | 409 kts | 359° |
| 2026-05-01 09:13 | 34.53038 | 126.80099 | 20964 ft | 409 kts | 359° |
| 2026-05-01 09:13 | 34.55875 | 126.80403 | 20960 ft | 409 kts | 359° |
| 2026-05-01 09:13 | 34.58707 | 126.80706 | 20966 ft | 409 kts | 359° |
| 2026-05-01 09:14 | 34.61539 | 126.81009 | 20966 ft | 408 kts | 359° |
| 2026-05-01 09:14 | 34.64374 | 126.81310 | 20959 ft | 408 kts | 359° |
| 2026-05-01 09:14 | 34.67205 | 126.81614 | 20953 ft | 408 kts | 359° |
| 2026-05-01 09:14 | 34.70033 | 126.81918 | 20955 ft | 408 kts | 359° |
| 2026-05-01 09:15 | 34.72862 | 126.82221 | 20954 ft | 408 kts | 359° |
| 2026-05-01 09:15 | 34.75690 | 126.82525 | 20956 ft | 408 kts | 359° |
| 2026-05-01 09:15 | 34.78517 | 126.82830 | 20950 ft | 408 kts | 359° |
| 2026-05-01 09:15 | 34.81311 | 126.83132 | 20952 ft | 408 kts | 359° |
| 2026-05-01 09:16 | 34.84134 | 126.83435 | 20948 ft | 407 kts | 359° |
| 2026-05-01 09:16 | 34.86994 | 126.83742 | 20947 ft | 407 kts | 359° |
| 2026-05-01 09:16 | 34.89782 | 126.84040 | 20947 ft | 407 kts | 359° |
| 2026-05-01 09:17 | 34.95428 | 126.84648 | 20948 ft | 407 kts | 359° |
| 2026-05-01 09:17 | 34.98250 | 126.84954 | 20950 ft | 407 kts | 359° |
| 2026-05-01 09:17 | 35.03891 | 126.85567 | 20960 ft | 407 kts | 359° |
| 2026-05-01 09:18 | 35.06714 | 126.85873 | 20959 ft | 407 kts | 359° |
| 2026-05-01 09:18 | 35.12354 | 126.86479 | 20972 ft | 406 kts | 359° |
| 2026-05-01 09:19 | 35.17979 | 126.87087 | 20980 ft | 405 kts | 359° |
| 2026-05-01 09:19 | 35.20789 | 126.87393 | 20981 ft | 405 kts | 359° |
| 2026-05-01 09:19 | 35.23593 | 126.87699 | 20980 ft | 404 kts | 359° |
| 2026-05-01 09:20 | 35.29191 | 126.88315 | 20977 ft | 403 kts | 359° |
| 2026-05-01 09:20 | 35.34745 | 126.88919 | 20975 ft | 403 kts | 359° |
| 2026-05-01 09:21 | 35.40326 | 126.89515 | 20975 ft | 402 kts | 359° |
| 2026-05-01 09:21 | 35.43114 | 126.89817 | 20973 ft | 402 kts | 359° |
| 2026-05-01 09:21 | 35.48686 | 126.90430 | 20967 ft | 402 kts | 359° |
| 2026-05-01 09:22 | 35.54247 | 126.91037 | 20967 ft | 401 kts | 359° |
| 2026-05-01 09:22 | 35.59807 | 126.91646 | 20963 ft | 401 kts | 360° |
| 2026-05-01 09:23 | 35.62586 | 126.91951 | 20966 ft | 400 kts | 360° |
| 2026-05-01 09:23 | 35.68134 | 126.92566 | 20954 ft | 400 kts | 360° |
| 2026-05-01 09:24 | 35.73677 | 126.93166 | 20952 ft | 400 kts | 360° |
| 2026-05-01 09:24 | 35.76446 | 126.93468 | 20952 ft | 399 kts | 360° |
| 2026-05-01 09:24 | 35.81983 | 126.94080 | 20945 ft | 399 kts | 360° |
| 2026-05-01 09:25 | 35.87516 | 126.94696 | 20941 ft | 399 kts | 360° |
| 2026-05-01 09:25 | 35.93052 | 126.95306 | 20936 ft | 399 kts | 360° |
| 2026-05-01 09:26 | 35.95814 | 126.95609 | 20934 ft | 399 kts | 360° |
| 2026-05-01 09:26 | 36.01351 | 126.96221 | 20929 ft | 399 kts | 360° |
| 2026-05-01 09:26 | 36.04122 | 126.96527 | 20927 ft | 400 kts | 360° |
| 2026-05-01 09:27 | 36.09659 | 126.97141 | 20919 ft | 400 kts | 360° |
| 2026-05-01 09:27 | 36.12427 | 126.97450 | 20919 ft | 400 kts | 0° |
| 2026-05-01 09:27 | 36.15197 | 126.97760 | 20910 ft | 400 kts | 0° |
| 2026-05-01 09:28 | 36.17972 | 126.98067 | 20908 ft | 400 kts | 0° |
| 2026-05-01 09:28 | 36.20741 | 126.98374 | 20905 ft | 400 kts | 0° |
| 2026-05-01 09:28 | 36.23512 | 126.98685 | 20901 ft | 400 kts | 0° |
| 2026-05-01 09:28 | 36.26282 | 126.98995 | 20905 ft | 400 kts | 0° |
| 2026-05-01 09:29 | 36.31828 | 126.99607 | 20895 ft | 400 kts | 0° |
| 2026-05-01 09:29 | 36.34599 | 126.99916 | 20893 ft | 400 kts | 0° |
| 2026-05-01 09:30 | 36.40141 | 127.00322 | 20889 ft | 396 kts | 354° |
| 2026-05-01 09:30 | 36.42899 | 127.00215 | 20886 ft | 396 kts | 354° |
| 2026-05-01 09:30 | 36.48414 | 127.00008 | 20878 ft | 396 kts | 354° |
| 2026-05-01 09:31 | 36.51168 | 126.99908 | 20879 ft | 397 kts | 354° |
| 2026-05-01 09:31 | 36.53927 | 126.99808 | 20882 ft | 397 kts | 354° |
| 2026-05-01 09:31 | 36.59449 | 126.99609 | 20877 ft | 397 kts | 354° |
| 2026-05-01 09:32 | 36.62161 | 126.99510 | 20866 ft | 390 kts | 354° |
| 2026-05-01 09:32 | 36.67356 | 126.99339 | 19856 ft | 362 kts | 354° |
| 2026-05-01 09:32 | 36.69857 | 126.99255 | 18986 ft | 357 kts | 354° |
| 2026-05-01 09:33 | 36.72329 | 126.99111 | 18261 ft | 355 kts | 350° |
| 2026-05-01 09:33 | 36.74720 | 126.98486 | 17740 ft | 349 kts | 341° |
| 2026-05-01 09:33 | 36.79163 | 126.96221 | 16658 ft | 342 kts | 336° |
| 2026-05-01 09:34 | 36.81343 | 126.95074 | 16122 ft | 339 kts | 336° |
| 2026-05-01 09:34 | 36.83505 | 126.93938 | 15588 ft | 336 kts | 336° |
| 2026-05-01 09:34 | 36.87654 | 126.91401 | 14480 ft | 327 kts | 328° |
| 2026-05-01 09:35 | 36.89542 | 126.89855 | 13559 ft | 323 kts | 328° |
| 2026-05-01 09:35 | 36.93257 | 126.86813 | 11931 ft | 306 kts | 328° |
| 2026-05-01 09:35 | 36.94960 | 126.85414 | 11800 ft | 281 kts | 328° |
| 2026-05-01 09:36 | 36.96546 | 126.84107 | 11468 ft | 267 kts | 328° |
| 2026-05-01 09:36 | 36.98082 | 126.82840 | 10908 ft | 263 kts | 328° |
| 2026-05-01 09:36 | 36.99601 | 126.81586 | 10315 ft | 261 kts | 328° |
| 2026-05-01 09:36 | 37.01102 | 126.80347 | 9849 ft | 263 kts | 328° |
| 2026-05-01 09:37 | 37.02624 | 126.79091 | 9505 ft | 261 kts | 328° |
| 2026-05-01 09:37 | 37.05645 | 126.76593 | 8933 ft | 257 kts | 328° |
| 2026-05-01 09:37 | 37.07127 | 126.75366 | 8553 ft | 257 kts | 327° |
| 2026-05-01 09:38 | 37.10131 | 126.72883 | 7724 ft | 256 kts | 327° |
| 2026-05-01 09:38 | 37.11620 | 126.71653 | 7105 ft | 257 kts | 327° |
| 2026-05-01 09:38 | 37.13114 | 126.70416 | 6636 ft | 257 kts | 326° |
| 2026-05-01 09:39 | 37.16090 | 126.67947 | 5766 ft | 255 kts | 326° |
| 2026-05-01 09:39 | 37.17569 | 126.66719 | 5328 ft | 255 kts | 326° |
| 2026-05-01 09:39 | 37.18788 | 126.65707 | 5062 ft | 251 kts | 326° |
| 2026-05-01 09:40 | 37.20294 | 126.64455 | 4995 ft | 244 kts | 325° |
| 2026-05-01 09:40 | 37.22965 | 126.62236 | 4997 ft | 216 kts | 325° |
| 2026-05-01 09:40 | 37.24158 | 126.61243 | 4996 ft | 201 kts | 326° |
| 2026-05-01 09:41 | 37.25276 | 126.60313 | 4966 ft | 184 kts | 325° |
| 2026-05-01 09:41 | 37.27181 | 126.58730 | 4574 ft | 151 kts | 324° |
| 2026-05-01 09:41 | 37.28033 | 126.58020 | 4330 ft | 143 kts | 324° |
| 2026-05-01 09:42 | 37.28852 | 126.57337 | 4047 ft | 141 kts | 324° |
| 2026-05-01 09:42 | 37.29657 | 126.56638 | 3690 ft | 141 kts | 322° |
| 2026-05-01 09:42 | 37.31230 | 126.55232 | 3150 ft | 139 kts | 321° |
| 2026-05-01 09:43 | 37.32802 | 126.53838 | 2746 ft | 138 kts | 321° |
| 2026-05-01 09:43 | 37.33587 | 126.53142 | 2561 ft | 137 kts | 321° |
| 2026-05-01 09:43 | 37.34365 | 126.52453 | 2378 ft | 137 kts | 320° |
| 2026-05-01 09:44 | 37.35912 | 126.51081 | 2014 ft | 136 kts | 319° |
| 2026-05-01 09:44 | 37.36684 | 126.50397 | 1836 ft | 135 kts | 319° |
| 2026-05-01 09:44 | 37.37449 | 126.49719 | 1666 ft | 134 kts | 318° |
| 2026-05-01 09:45 | 37.38209 | 126.49045 | 1475 ft | 134 kts | 318° |
| 2026-05-01 09:45 | 37.39739 | 126.47687 | 1113 ft | 134 kts | 319° |
| 2026-05-01 09:45 | 37.40496 | 126.47015 | 935 ft | 132 kts | 319° |
| 2026-05-01 09:46 | 37.41256 | 126.46340 | 756 ft | 134 kts | 319° |
| 2026-05-01 09:46 | 37.42013 | 126.45668 | 580 ft | 132 kts | 319° |
| 2026-05-01 09:46 | 37.42766 | 126.44999 | 402 ft | 133 kts | 319° |
| 2026-05-01 09:46 | 37.43524 | 126.44327 | 226 ft | 133 kts | 318° |
| 2026-05-01 09:47 | 37.44280 | 126.43657 | 54 ft | 133 kts | 319° |
| 2026-05-01 09:47 | 37.44969 | 126.43038 | 31 ft | 105 kts | 325° |
| 2026-05-01 09:47 | 37.45422 | 126.42633 | 32 ft | 45 kts | 324° |
| 2026-05-01 09:47 | 37.45665 | 126.42459 | 31 ft | 37 kts | 346° |
| 2026-05-01 09:48 | 37.45802 | 126.42460 | 31 ft | 10 kts | 44° |
| 2026-05-01 09:48 | 37.45810 | 126.42546 | 32 ft | 11 kts | 112° |
| 2026-05-01 09:48 | 37.45731 | 126.42624 | 31 ft | 18 kts | 146° |
| 2026-05-01 09:48 | 37.45633 | 126.42711 | 31 ft | 14 kts | 144° |
| 2026-05-01 09:49 | 37.45627 | 126.42794 | 32 ft | 11 kts | 55° |
| 2026-05-01 09:49 | 37.45634 | 126.42807 | 32 ft | 0 kts | 54° |
| 2026-05-01 09:51 | 37.45638 | 126.42814 | 32 ft | 3 kts | 54° |
| 2026-05-01 09:51 | 37.45649 | 126.42832 | 33 ft | 5 kts | 54° |
| 2026-05-01 09:51 | 37.45699 | 126.42922 | 35 ft | 12 kts | 54° |
| 2026-05-01 09:51 | 37.45747 | 126.43007 | 34 ft | 13 kts | 55° |
| 2026-05-01 09:52 | 37.45794 | 126.43092 | 33 ft | 10 kts | 64° |
| 2026-05-01 09:52 | 37.45804 | 126.43172 | 33 ft | 10 kts | 76° |
| 2026-05-01 09:52 | 37.45845 | 126.43256 | 30 ft | 11 kts | 54° |
| 2026-05-01 09:52 | 37.45890 | 126.43336 | 32 ft | 13 kts | 54° |
| 2026-05-01 09:53 | 37.45954 | 126.43449 | 32 ft | 17 kts | 54° |
| 2026-05-01 09:53 | 37.46031 | 126.43584 | 32 ft | 21 kts | 54° |
| 2026-05-01 09:53 | 37.46087 | 126.43683 | 31 ft | 21 kts | 54° |
| 2026-05-01 09:53 | 37.46157 | 126.43721 | 32 ft | 12 kts | 335° |
| 2026-05-01 09:54 | 37.46262 | 126.43631 | 30 ft | 16 kts | 325° |
| 2026-05-01 09:54 | 37.46323 | 126.43575 | 32 ft | 15 kts | 323° |
| 2026-05-01 09:54 | 37.46350 | 126.43532 | 31 ft | 4 kts | 255° |
| 2026-05-01 09:54 | 37.46326 | 126.43500 | 31 ft | 7 kts | 234° |
| 2026-05-01 09:55 | 37.46297 | 126.43448 | 32 ft | 7 kts | 234° |
| 2026-05-01 09:55 | 37.46293 | 126.43441 | 32 ft | 0 kts | 234° |